Time;durP1;ratioP1;P1;durP2;ratioP2;P2;SDS_P1;SDS_P2;PMS_P1;PMS_P2;Temp;Humidity;BMP_temperature;BMP_pressure;BME280_temperature;BME280_humidity;BME280_pressure;Samples;Min_cycle;Max_cycle;Signal;HPM_P1;HPM_P2
2022/09/18 00:01:00;;;;;;;4.72;2.83;;;19.50;59.50;;;;;;4916589;29;20036;-59
2022/09/18 00:03:29;;;;;;;3.83;2.60;;;19.50;59.50;;;;;;4916778;29;20047;-58
2022/09/18 00:05:55;;;;;;;5.70;2.72;;;19.50;59.50;;;;;;4917044;29;20251;-59
2022/09/18 00:08:21;;;;;;;5.75;3.15;;;19.50;59.60;;;;;;4915783;29;20043;-59
2022/09/18 00:10:47;;;;;;;4.20;2.47;;;19.50;59.60;;;;;;4915727;29;20040;-59
2022/09/18 00:13:14;;;;;;;6.25;2.80;;;19.50;59.60;;;;;;4916818;29;20035;-59
2022/09/18 00:15:40;;;;;;;5.10;2.97;;;19.50;59.60;;;;;;4916447;29;20112;-59
2022/09/18 00:18:07;;;;;;;5.28;2.90;;;19.50;59.50;;;;;;4916732;29;20051;-58
2022/09/18 00:20:34;;;;;;;4.82;2.83;;;19.50;59.50;;;;;;4916643;29;20040;-59
2022/09/18 00:23:00;;;;;;;4.38;2.75;;;19.50;59.50;;;;;;4916610;29;20043;-60
2022/09/18 00:25:27;;;;;;;4.50;2.92;;;19.50;59.60;;;;;;4916356;29;20097;-59
2022/09/18 00:27:53;;;;;;;4.85;2.88;;;19.50;59.60;;;;;;4916330;29;20408;-59
2022/09/18 00:30:19;;;;;;;4.85;2.95;;;19.50;59.50;;;;;;4899324;29;20033;-58
2022/09/18 00:32:45;;;;;;;4.97;2.70;;;19.50;59.60;;;;;;4915287;29;20051;-59
2022/09/18 00:35:11;;;;;;;5.07;2.88;;;19.50;59.60;;;;;;4915053;29;20120;-59
2022/09/18 00:37:37;;;;;;;5.53;3.00;;;19.50;59.60;;;;;;4915201;29;20040;-59
2022/09/18 00:40:04;;;;;;;5.38;3.08;;;19.40;59.60;;;;;;4914788;29;20044;-59
2022/09/18 00:42:30;;;;;;;5.13;3.13;;;19.50;59.60;;;;;;4931129;29;20140;-58
2022/09/18 00:44:56;;;;;;;4.30;2.75;;;19.50;59.60;;;;;;4915949;29;20398;-59
2022/09/18 00:47:31;;;;;;;5.32;2.90;;;19.50;59.60;;;;;;4914830;29;20452;-58
2022/09/18 00:50:17;;;;;;;4.65;2.92;;;19.50;59.60;;;;;;4914682;29;20042;-61
2022/09/18 00:52:55;;;;;;;5.00;2.90;;;19.50;59.60;;;;;;4914648;29;20380;-60
2022/09/18 00:55:27;;;;;;;4.43;2.58;;;19.50;59.60;;;;;;4914562;29;20076;-59
2022/09/18 00:57:57;;;;;;;4.97;2.90;;;19.50;59.60;;;;;;4914767;29;20036;-59
2022/09/18 01:00:23;;;;;;;4.93;2.80;;;19.50;59.70;;;;;;4914648;29;20047;-59
2022/09/18 01:02:49;;;;;;;4.13;2.72;;;19.50;59.70;;;;;;4915969;29;20043;-59
2022/09/18 01:05:39;;;;;;;4.60;3.00;;;19.50;59.70;;;;;;4914460;29;20103;-59
2022/09/18 01:08:06;;;;;;;;;;;19.50;59.60;;;;;;4899592;29;20032;-59
2022/09/18 01:10:49;;;;;;;5.55;2.85;;;19.40;59.60;;;;;;4915885;29;20394;-59
2022/09/18 01:13:18;;;;;;;4.70;2.63;;;19.50;59.60;;;;;;4915935;29;20035;-58
2022/09/18 01:15:56;;;;;;;4.93;3.20;;;19.50;59.60;;;;;;4914325;29;20036;-59
2022/09/18 01:18:52;;;;;;;4.55;2.78;;;19.50;60.20;;;;;;4914319;29;20483;-59
2022/09/18 01:21:47;;;;;;;5.22;2.67;;;19.40;59.60;;;;;;4914298;29;20087;-60
2022/09/18 01:24:31;;;;;;;4.80;2.35;;;19.50;59.70;;;;;;4900732;29;20028;-59
2022/09/18 01:27:08;;;;;;;4.70;2.85;;;19.50;59.70;;;;;;4898575;29;20440;-59
2022/09/18 01:29:54;;;;;;;4.55;2.88;;;19.40;59.60;;;;;;4914529;29;20040;-60
2022/09/18 01:32:32;;;;;;;5.72;3.05;;;19.40;59.60;;;;;;4914436;29;20115;-59
2022/09/18 01:35:30;;;;;;;4.78;2.90;;;19.40;59.60;;;;;;4914123;29;20506;-60
2022/09/18 01:38:05;;;;;;;4.07;2.72;;;19.40;59.60;;;;;;4914393;29;20123;-59
2022/09/18 01:40:47;;;;;;;4.30;2.90;;;19.40;59.60;;;;;;4914129;29;20119;-59
2022/09/18 01:43:17;;;;;;;4.07;2.53;;;19.40;59.60;;;;;;4914024;29;20476;-60
2022/09/18 01:45:49;;;;;;;4.63;2.60;;;19.50;59.70;;;;;;4914146;29;20460;-59
2022/09/18 01:48:27;;;;;;;4.93;2.72;;;19.40;59.60;;;;;;4914269;29;20032;-61
2022/09/18 01:51:05;;;;;;;4.00;2.75;;;19.50;59.70;;;;;;4914218;29;20047;-60
2022/09/18 01:53:42;;;;;;;3.95;2.70;;;19.50;60.20;;;;;;4914081;29;20040;-58
2022/09/18 01:56:21;;;;;;;3.95;2.67;;;19.50;59.70;;;;;;4914031;29;20035;-59
2022/09/18 01:58:51;;;;;;;4.72;2.63;;;19.50;59.60;;;;;;4914239;29;20032;-59
2022/09/18 02:01:23;;;;;;;5.95;3.15;;;19.50;59.60;;;;;;4913986;29;20483;-61
2022/09/18 02:03:55;;;;;;;4.53;2.70;;;19.50;59.60;;;;;;4883223;29;20036;-60
2022/09/18 02:06:27;;;;;;;4.72;2.63;;;19.50;59.60;;;;;;4914238;29;20032;-59
2022/09/18 02:08:56;;;;;;;4.07;2.67;;;19.50;59.50;;;;;;4914319;29;20062;-59
2022/09/18 02:11:23;;;;;;;4.13;2.72;;;19.50;59.60;;;;;;4915625;29;20368;-60
2022/09/18 02:14:17;;;;;;;3.67;2.70;;;19.50;59.60;;;;;;4913825;29;20406;-59
2022/09/18 02:17:12;;;;;;;4.20;2.70;;;19.50;59.60;;;;;;4929812;29;20084;-59
2022/09/18 02:19:45;;;;;;;5.28;3.00;;;19.50;59.60;;;;;;4913901;29;20510;-60
2022/09/18 02:22:16;;;;;;;4.13;2.72;;;19.40;59.50;;;;;;4898463;29;20032;-59
2022/09/18 02:24:47;;;;;;;5.15;2.67;;;19.50;59.60;;;;;;4914974;29;20067;-60
2022/09/18 02:27:15;;;;;;;4.23;2.40;;;19.50;59.60;;;;;;4913867;29;20067;-60
2022/09/18 02:29:43;;;;;;;4.15;2.53;;;19.40;59.50;;;;;;4914185;29;20648;-57
2022/09/18 02:32:10;;;;;;;3.78;2.65;;;19.40;59.50;;;;;;4913886;29;20029;-60
2022/09/18 02:34:36;;;;;;;3.38;2.50;;;19.40;59.50;;;;;;4913758;29;20071;-60
2022/09/18 02:37:31;;;;;;;5.18;3.00;;;19.40;59.60;;;;;;4913697;29;20127;-60
2022/09/18 02:40:14;;;;;;;4.18;2.50;;;19.40;59.70;;;;;;4927648;29;20048;-60
2022/09/18 02:42:52;;;;;;;5.00;2.83;;;19.40;59.60;;;;;;4914009;29;20032;-58
2022/09/18 02:45:18;;;;;;;4.20;2.67;;;19.40;59.50;;;;;;4899214;29;20064;-60
2022/09/18 02:48:20;;;;;;;6.13;3.20;;;19.40;59.60;;;;;;4916828;29;20044;-59
2022/09/18 02:50:57;;;;;;;4.75;2.70;;;19.40;59.70;;;;;;4916833;29;20043;-60
2022/09/18 02:53:28;;;;;;;4.05;2.40;;;19.40;59.70;;;;;;4916792;29;20032;-60
2022/09/18 02:56:03;;;;;;;3.55;2.53;;;19.40;59.60;;;;;;4917329;29;20101;-60
2022/09/18 02:58:46;;;;;;;4.10;2.80;;;19.40;59.70;;;;;;4917931;29;20035;-61
2022/09/18 03:01:14;;;;;;;4.40;2.70;;;19.40;59.70;;;;;;4916944;29;20039;-57
2022/09/18 03:03:40;;;;;;;4.25;2.40;;;19.40;59.60;;;;;;4917012;29;20043;-59
2022/09/18 03:06:09;;;;;;;3.67;2.43;;;19.40;59.70;;;;;;4916768;29;20039;-60
2022/09/18 03:08:37;;;;;;;3.78;2.40;;;19.40;59.70;;;;;;4916523;29;20095;-60
2022/09/18 03:11:04;;;;;;;4.25;2.55;;;19.40;59.70;;;;;;4916850;29;20043;-59
2022/09/18 03:13:31;;;;;;;4.65;2.53;;;19.40;59.70;;;;;;4916681;29;20024;-59
2022/09/18 03:15:57;;;;;;;4.55;2.70;;;19.40;59.60;;;;;;4916686;29;20451;-60
2022/09/18 03:18:25;;;;;;;3.60;2.58;;;19.40;59.70;;;;;;4916377;29;20036;-59
2022/09/18 03:20:55;;;;;;;4.28;2.33;;;19.40;59.60;;;;;;4916361;29;20040;-60
2022/09/18 03:23:22;;;;;;;4.90;2.53;;;19.40;59.70;;;;;;4916227;29;20038;-61
2022/09/18 03:25:50;;;;;;;3.75;2.28;;;19.40;59.70;;;;;;4916632;29;20043;-59
2022/09/18 03:28:17;;;;;;;3.35;2.55;;;19.40;59.70;;;;;;4916504;29;20394;-59
2022/09/18 03:30:44;;;;;;;5.30;2.70;;;19.40;59.70;;;;;;4916438;29;20032;-60
2022/09/18 03:33:12;;;;;;;3.60;2.40;;;19.40;59.60;;;;;;4916301;29;20048;-61
2022/09/18 03:35:42;;;;;;;4.38;2.40;;;19.40;59.60;;;;;;4917496;29;20084;-60
2022/09/18 03:38:09;;;;;;;4.50;2.78;;;19.40;59.60;;;;;;4917438;29;20032;-60
2022/09/18 03:40:35;;;;;;;4.50;2.50;;;19.40;59.60;;;;;;4915875;29;20044;-60
2022/09/18 03:43:04;;;;;;;3.67;2.70;;;19.40;60.20;;;;;;4917201;29;20035;-60
2022/09/18 03:45:30;;;;;;;4.60;2.60;;;19.40;59.70;;;;;;4915884;29;20035;-60
2022/09/18 03:47:58;;;;;;;4.15;2.55;;;19.40;59.70;;;;;;4916162;29;20040;-60
2022/09/18 03:50:27;;;;;;;5.65;2.60;;;19.40;59.60;;;;;;4915832;29;20395;-61
2022/09/18 03:52:54;;;;;;;4.90;2.35;;;19.40;59.60;;;;;;4915984;29;20059;-60
2022/09/18 03:55:35;;;;;;;6.20;2.80;;;19.40;59.60;;;;;;4915904;29;20032;-60
2022/09/18 03:58:24;;;;;;;3.60;2.35;;;19.40;59.60;;;;;;4913123;29;20055;-60
2022/09/18 04:01:05;;;;;;;4.30;2.40;;;19.40;59.60;;;;;;4916014;29;20399;-59
2022/09/18 04:03:46;;;;;;;4.53;2.65;;;19.40;59.70;;;;;;4902173;29;20068;-60
2022/09/18 04:06:31;;;;;;;4.40;2.85;;;19.40;59.60;;;;;;4916728;29;20032;-60
2022/09/18 04:09:23;;;;;;;4.85;2.70;;;19.40;59.70;;;;;;4931310;29;20047;-60
2022/09/18 04:11:53;;;;;;;3.28;2.38;;;19.40;59.60;;;;;;4915654;29;20067;-60
2022/09/18 04:14:19;;;;;;;4.65;2.70;;;19.40;59.70;;;;;;4900010;29;20032;-60
2022/09/18 04:16:45;;;;;;;3.95;2.40;;;19.40;59.70;;;;;;4899703;29;20040;-59
2022/09/18 04:19:11;;;;;;;6.68;2.53;;;19.40;60.30;;;;;;4915526;29;20038;-59
2022/09/18 04:21:38;;;;;;;3.83;2.50;;;19.40;59.60;;;;;;4915211;29;20039;-60
2022/09/18 04:24:05;;;;;;;4.43;2.40;;;19.40;59.70;;;;;;4915223;29;20052;-60
2022/09/18 04:26:33;;;;;;;5.47;2.83;;;19.40;59.70;;;;;;4915124;29;20040;-59
2022/09/18 04:29:00;;;;;;;5.22;2.50;;;19.40;59.60;;;;;;4915105;29;20036;-59
2022/09/18 04:31:26;;;;;;;4.65;2.58;;;19.30;59.60;;;;;;4915107;29;20032;-60
2022/09/18 04:33:54;;;;;;;5.05;2.85;;;19.40;59.60;;;;;;4883946;29;20047;-60
2022/09/18 04:36:23;;;;;;;5.50;2.60;;;19.40;59.60;;;;;;4899825;29;20032;-60
2022/09/18 04:38:49;;;;;;;5.20;2.60;;;19.40;59.70;;;;;;4914935;29;20064;-60
2022/09/18 04:41:15;;;;;;;3.35;2.50;;;19.40;59.60;;;;;;4914841;29;20036;-59
2022/09/18 04:43:43;;;;;;;4.93;2.60;;;19.40;59.70;;;;;;4914868;29;20032;-60
2022/09/18 04:46:09;;;;;;;4.13;2.58;;;19.40;59.70;;;;;;4915079;29;20554;-59
2022/09/18 04:48:36;;;;;;;5.70;2.88;;;19.40;59.70;;;;;;4914769;29;20044;-58
2022/09/18 04:51:04;;;;;;;4.30;2.50;;;19.40;59.70;;;;;;4930826;29;20047;-60
2022/09/18 04:53:38;;;;;;;3.83;2.40;;;19.40;59.60;;;;;;4914991;29;20036;-60
2022/09/18 04:56:05;;;;;;;4.00;2.30;;;19.40;59.60;;;;;;4914899;29;20391;-59
2022/09/18 04:58:34;;;;;;;4.88;2.35;;;19.30;59.50;;;;;;4914764;29;20139;-60
2022/09/18 05:01:00;;;;;;;4.15;2.50;;;19.40;59.50;;;;;;4914410;29;20048;-58
2022/09/18 05:03:27;;;;;;;4.80;2.70;;;19.40;59.50;;;;;;4917152;29;20566;-60
2022/09/18 05:05:54;;;;;;;4.60;2.70;;;19.40;59.50;;;;;;4913592;29;20040;-60
2022/09/18 05:08:21;;;;;;;5.78;2.47;;;19.40;59.50;;;;;;4914239;29;20031;-60
2022/09/18 05:10:47;;;;;;;4.97;2.50;;;19.40;59.50;;;;;;4914173;29;20111;-59
2022/09/18 05:13:14;;;;;;;4.13;2.40;;;19.40;59.50;;;;;;4914269;29;20088;-59
2022/09/18 05:15:54;;;;;;;2.60;2.28;;;19.40;59.50;;;;;;4914353;29;20497;-60
2022/09/18 05:18:21;;;;;;;3.78;2.30;;;19.40;59.50;;;;;;4914545;29;20435;-59
2022/09/18 05:20:53;;;;;;;4.53;2.60;;;19.40;59.40;;;;;;4914491;29;20040;-61
2022/09/18 05:23:20;;;;;;;3.47;2.30;;;19.40;59.40;;;;;;4914279;29;20084;-59
2022/09/18 05:25:46;;;;;;;4.30;2.42;;;19.40;59.40;;;;;;4914482;29;20402;-57
2022/09/18 05:28:18;;;;;;;3.90;2.60;;;19.40;59.40;;;;;;4914341;29;20074;-60
2022/09/18 05:30:46;;;;;;;6.20;2.33;;;19.40;59.50;;;;;;4898866;29;20055;-60
2022/09/18 05:33:13;;;;;;;3.83;2.50;;;19.40;59.50;;;;;;4914210;29;20032;-59
2022/09/18 05:35:41;;;;;;;4.53;2.58;;;19.40;59.50;;;;;;4913790;29;20059;-60
2022/09/18 05:38:09;;;;;;;5.38;2.90;;;19.40;59.50;;;;;;4914039;29;20111;-59
2022/09/18 05:40:38;;;;;;;3.92;2.45;;;19.40;59.50;;;;;;4898376;29;20079;-60
2022/09/18 05:43:06;;;;;;;4.57;2.30;;;19.40;59.70;;;;;;4914253;29;20047;-59
2022/09/18 05:45:34;;;;;;;4.63;2.40;;;19.40;59.70;;;;;;4914258;29;20503;-61
2022/09/18 05:48:05;;;;;;;5.65;2.60;;;19.40;59.60;;;;;;4914006;29;20047;-59
2022/09/18 05:50:35;;;;;;;6.18;2.72;;;19.30;59.70;;;;;;4914180;29;20064;-59
2022/09/18 05:53:21;;;;;;;5.00;2.60;;;19.30;59.70;;;;;;4914056;29;20043;-60
2022/09/18 05:56:10;;;;;;;4.63;2.45;;;19.30;59.60;;;;;;4914457;29;20052;-60
2022/09/18 05:58:36;;;;;;;4.00;2.45;;;19.40;60.30;;;;;;4913893;29;20233;-60
2022/09/18 06:01:03;;;;;;;4.00;2.45;;;19.30;59.50;;;;;;4914194;29;20036;-60
2022/09/18 06:03:49;;;;;;;4.63;2.70;;;19.30;59.60;;;;;;4914844;29;20055;-59
2022/09/18 06:06:17;;;;;;;4.13;2.30;;;19.30;59.70;;;;;;4914078;29;20052;-56
2022/09/18 06:08:43;;;;;;;4.20;2.50;;;19.30;59.60;;;;;;4914099;29;20443;-60
2022/09/18 06:11:09;;;;;;;4.30;2.60;;;19.30;59.50;;;;;;4913860;29;20044;-60
2022/09/18 06:13:36;;;;;;;5.70;2.60;;;19.30;59.60;;;;;;4913684;29;20096;-59
2022/09/18 06:16:02;;;;;;;4.70;2.85;;;19.40;59.70;;;;;;4913849;29;20032;-59
2022/09/18 06:18:45;;;;;;;4.80;2.67;;;19.30;59.60;;;;;;4914124;29;20128;-59
2022/09/18 06:21:13;;;;;;;3.95;2.25;;;19.40;59.80;;;;;;4917680;29;20064;-60
2022/09/18 06:23:41;;;;;;;4.60;2.25;;;19.40;59.70;;;;;;4917189;29;20032;-59
2022/09/18 06:26:16;;;;;;;4.22;2.30;;;19.40;59.80;;;;;;4917427;29;20088;-58
2022/09/18 06:28:45;;;;;;;5.55;2.72;;;19.40;60.20;;;;;;4901471;29;20043;-60
2022/09/18 06:31:12;;;;;;;4.03;2.75;;;19.40;59.70;;;;;;4917215;29;20032;-60
2022/09/18 06:33:58;;;;;;;5.18;2.60;;;19.40;60.20;;;;;;4917115;29;20033;-59
2022/09/18 06:36:24;;;;;;;5.03;2.65;;;19.40;59.60;;;;;;4917098;29;20032;-59
2022/09/18 06:39:10;;;;;;;3.83;2.50;;;19.30;59.40;;;;;;4917840;29;20060;-60
2022/09/18 06:41:36;;;;;;;4.18;2.15;;;19.40;59.60;;;;;;4918250;29;20032;-60
2022/09/18 06:44:04;;;;;;;4.20;2.47;;;19.30;59.50;;;;;;4917061;29;20083;-58
2022/09/18 06:46:42;;;;;;;3.72;2.30;;;19.30;59.70;;;;;;4918288;29;20032;-60
2022/09/18 06:49:23;;;;;;;4.97;2.63;;;19.30;59.60;;;;;;4916633;29;20395;-59
2022/09/18 06:51:49;;;;;;;4.35;2.47;;;19.30;59.60;;;;;;4916871;29;20452;-59
2022/09/18 06:54:16;;;;;;;4.55;2.40;;;19.40;59.60;;;;;;4916860;29;20111;-58
2022/09/18 06:56:44;;;;;;;5.20;2.42;;;19.30;59.60;;;;;;4916864;29;20309;-60
2022/09/18 06:59:12;;;;;;;4.88;2.50;;;19.40;59.50;;;;;;4917725;29;20043;-59
2022/09/18 07:01:39;;;;;;;4.47;2.45;;;19.30;59.60;;;;;;4916679;29;20036;-60
2022/09/18 07:04:32;;;;;;;5.07;2.50;;;19.30;59.70;;;;;;4916515;29;20616;-60
2022/09/18 07:06:59;;;;;;;5.05;2.75;;;19.30;59.60;;;;;;4916582;29;20028;-59
2022/09/18 07:09:27;;;;;;;5.68;2.72;;;19.30;59.30;;;;;;4916510;29;20036;-60
2022/09/18 07:11:54;;;;;;;6.50;2.97;;;19.30;59.40;;;;;;4917708;29;20498;-60
2022/09/18 07:14:27;;;;;;;5.30;2.80;;;19.30;59.20;;;;;;4916470;29;20036;-60
2022/09/18 07:16:58;;;;;;;5.75;2.85;;;19.30;59.30;;;;;;4916593;29;20036;-59
2022/09/18 07:19:27;;;;;;;5.63;2.90;;;19.40;59.20;;;;;;4916182;29;20458;-60
2022/09/18 07:21:53;;;;;;;5.40;2.72;;;19.40;59.20;;;;;;4916167;29;20472;-61
2022/09/18 07:24:19;;;;;;;5.30;2.38;;;19.40;59.10;;;;;;4916392;29;20407;-60
2022/09/18 07:26:46;;;;;;;5.20;2.72;;;19.40;59.10;;;;;;4916846;29;20137;-60
2022/09/18 07:29:12;;;;;;;3.42;2.30;;;19.40;59.20;;;;;;4916083;29;20176;-60
2022/09/18 07:31:39;;;;;;;6.22;2.92;;;19.40;59.10;;;;;;4915640;29;20430;-60
2022/09/18 07:34:08;;;;;;;5.70;2.78;;;19.40;59.00;;;;;;4916044;29;20071;-59
2022/09/18 07:36:35;;;;;;;5.22;2.60;;;19.40;59.80;;;;;;4916097;29;20036;-59
2022/09/18 07:39:02;;;;;;;5.50;2.47;;;19.40;59.10;;;;;;4915991;29;20399;-61
2022/09/18 07:41:37;;;;;;;5.60;2.90;;;19.40;59.00;;;;;;4915935;29;20040;-60
2022/09/18 07:44:04;;;;;;;5.10;2.70;;;19.50;59.10;;;;;;4916323;29;20119;-59
2022/09/18 07:46:30;;;;;;;5.25;2.70;;;19.50;59.10;;;;;;4916092;29;20483;-60
2022/09/18 07:49:00;;;;;;;5.30;2.70;;;19.50;59.10;;;;;;4915849;29;20435;-61
2022/09/18 07:51:28;;;;;;;6.03;2.70;;;19.50;59.00;;;;;;4900466;29;20046;-60
2022/09/18 07:53:57;;;;;;;5.28;2.90;;;19.50;59.50;;;;;;4915728;29;20032;-59
2022/09/18 07:56:40;;;;;;;4.50;2.45;;;19.50;58.90;;;;;;4902444;29;20039;-60
2022/09/18 07:59:06;;;;;;;6.47;2.88;;;19.50;58.90;;;;;;4915920;29;20056;-59
2022/09/18 08:01:33;;;;;;;5.43;2.80;;;19.50;58.90;;;;;;4917018;29;20757;-60
2022/09/18 08:04:02;;;;;;;5.50;2.90;;;19.50;58.90;;;;;;4915612;29;20032;-60
2022/09/18 08:06:56;;;;;;;4.47;2.72;;;19.50;58.90;;;;;;4915074;29;20054;-59
2022/09/18 08:09:45;;;;;;;4.78;2.60;;;19.50;58.90;;;;;;4916482;29;20059;-59
2022/09/18 08:12:32;;;;;;;5.35;2.78;;;19.60;59.00;;;;;;4916639;29;20028;-58
2022/09/18 08:15:23;;;;;;;6.30;2.95;;;19.50;59.10;;;;;;4915328;29;20111;-58
2022/09/18 08:18:20;;;;;;;7.45;2.90;;;19.50;59.10;;;;;;4916688;29;20028;-59
2022/09/18 08:20:59;;;;;;;5.07;2.75;;;19.50;59.10;;;;;;4915358;29;20368;-57
2022/09/18 08:23:37;;;;;;;4.00;2.50;;;19.50;59.20;;;;;;4885726;29;20039;-60
2022/09/18 08:26:05;;;;;;;5.93;3.00;;;19.50;59.20;;;;;;4916206;29;20039;-60
2022/09/18 08:28:31;;;;;;;4.55;2.92;;;19.50;59.20;;;;;;4915083;29;20479;-58
2022/09/18 08:31:00;;;;;;;6.32;2.97;;;19.50;59.20;;;;;;4914996;29;20059;-60
2022/09/18 08:33:26;;;;;;;6.10;2.90;;;19.50;59.20;;;;;;4899412;29;20490;-57
2022/09/18 08:35:54;;;;;;;5.35;2.85;;;19.50;59.10;;;;;;4914352;29;20036;-60
2022/09/18 08:38:24;;;;;;;5.22;2.83;;;19.50;59.10;;;;;;4885459;29;20048;-59
2022/09/18 08:41:22;;;;;;;4.95;2.78;;;19.50;59.10;;;;;;4916248;29;20471;-57
2022/09/18 08:44:01;;;;;;;5.30;2.70;;;19.50;59.30;;;;;;4915538;29;20032;-58
2022/09/18 08:46:48;;;;;;;4.65;3.08;;;19.50;59.20;;;;;;4916252;29;20387;-58
2022/09/18 08:49:23;;;;;;;5.05;2.90;;;19.50;59.30;;;;;;4914679;29;20483;-57
2022/09/18 08:52:13;;;;;;;4.97;2.90;;;19.50;59.30;;;;;;4914677;29;20032;-60
2022/09/18 08:54:59;;;;;;;5.63;2.85;;;19.50;59.80;;;;;;4914990;29;20449;-60
2022/09/18 08:57:46;;;;;;;5.13;2.35;;;19.60;59.30;;;;;;4915983;29;20360;-58
2022/09/18 09:00:30;;;;;;;5.43;3.20;;;19.50;59.20;;;;;;4914720;29;20510;-59
2022/09/18 09:03:41;;;;;;;5.63;2.95;;;19.50;59.30;;;;;;4914587;29;20111;-58
2022/09/18 09:06:45;;;;;;;5.72;2.67;;;19.50;59.40;;;;;;4914425;29;20430;-59
2022/09/18 09:09:37;;;;;;;5.25;2.60;;;19.50;59.50;;;;;;4914686;29;20040;-58
2022/09/18 09:12:25;;;;;;;4.93;2.72;;;19.50;59.70;;;;;;4914113;29;20134;-60
2022/09/18 09:15:08;;;;;;;5.75;2.83;;;19.50;59.80;;;;;;4914413;29;20427;-60
2022/09/18 09:17:36;;;;;;;;;;;19.50;59.70;;;;;;4914872;29;20044;-59
2022/09/18 09:20:17;;;;;;;5.43;2.53;;;19.50;59.60;;;;;;4914475;29;19926;-60
2022/09/18 09:23:09;;;;;;;5.63;3.10;;;19.50;59.70;;;;;;4914319;29;20059;-58
2022/09/18 09:26:01;;;;;;;4.97;2.67;;;19.50;59.60;;;;;;4914389;29;20032;-61
2022/09/18 09:29:21;;;;;;;6.35;2.85;;;19.50;59.50;;;;;;4914116;29;20052;-60
2022/09/18 09:33:00;;;;;;;4.63;2.47;;;19.50;59.50;;;;;;4913760;29;20044;-60
2022/09/18 09:35:53;;;;;;;5.35;2.85;;;19.50;59.60;;;;;;4912335;29;20040;-59
2022/09/18 09:38:31;;;;;;;4.68;2.60;;;19.50;59.70;;;;;;4914485;29;20028;-59
2022/09/18 09:41:04;;;;;;;5.10;2.30;;;19.50;59.80;;;;;;4898593;29;20076;-59
2022/09/18 09:43:42;;;;;;;7.15;3.33;;;19.50;59.80;;;;;;4914199;29;20036;-60
2022/09/18 09:46:29;;;;;;;8.23;2.90;;;19.50;59.80;;;;;;4898462;29;20032;-58
2022/09/18 09:48:59;;;;;;;5.03;2.83;;;19.50;59.90;;;;;;4914196;29;20519;-59
2022/09/18 09:51:48;;;;;;;5.55;2.53;;;19.50;60.00;;;;;;4898331;29;20463;-59
2022/09/18 09:54:14;;;;;;;5.35;2.83;;;19.40;60.10;;;;;;4914743;29;20036;-59
2022/09/18 09:56:59;;;;;;;5.50;2.97;;;19.40;60.40;;;;;;4917711;29;20040;-59
2022/09/18 10:00:11;;;;;;;5.57;2.83;;;19.40;60.30;;;;;;4918061;29;20480;-60
2022/09/18 10:03:24;;;;;;;5.57;2.92;;;19.40;60.30;;;;;;4916477;29;20043;-60
2022/09/18 10:06:13;;;;;;;5.43;2.65;;;19.40;60.30;;;;;;4900826;29;20096;-60
2022/09/18 10:08:46;;;;;;;4.78;2.90;;;19.40;60.20;;;;;;4917591;29;20044;-55
2022/09/18 10:11:15;;;;;;;5.07;2.97;;;19.40;60.20;;;;;;4917435;29;20080;-58
2022/09/18 10:13:58;;;;;;;5.40;2.60;;;19.40;60.20;;;;;;4917467;29;20111;-59
2022/09/18 10:16:37;;;;;;;6.77;2.87;;;19.40;59.90;;;;;;4918951;29;20036;-59
2022/09/18 10:19:12;;;;;;;5.57;2.83;;;19.50;60.30;;;;;;4917433;29;20038;-60
2022/09/18 10:21:40;;;;;;;4.95;2.72;;;19.50;59.60;;;;;;4917321;29;20067;-60
2022/09/18 10:24:26;;;;;;;6.03;2.80;;;19.50;59.50;;;;;;4917234;29;20131;-56
2022/09/18 10:27:12;;;;;;;4.40;2.55;;;19.50;59.50;;;;;;4917598;29;20064;-59
2022/09/18 10:29:41;;;;;;;5.65;2.80;;;19.50;59.50;;;;;;4917279;29;20070;-59
2022/09/18 10:32:11;;;;;;;;;;;19.50;59.60;;;;;;4917855;29;20040;-60
2022/09/18 10:34:47;;;;;;;6.07;3.10;;;19.50;59.70;;;;;;4917538;29;19955;-59
2022/09/18 10:37:36;;;;;;;6.03;3.00;;;19.50;59.80;;;;;;4917515;29;20055;-60
2022/09/18 10:40:30;;;;;;;4.93;2.80;;;19.50;60.00;;;;;;4902335;29;20040;-58
2022/09/18 10:42:59;;;;;;;5.32;2.95;;;19.40;59.80;;;;;;4916874;29;20115;-59
2022/09/18 10:45:39;;;;;;;5.47;2.90;;;19.40;59.90;;;;;;4917052;29;20039;-60
2022/09/18 10:48:26;;;;;;;6.45;3.13;;;19.50;59.80;;;;;;4917798;29;20048;-58
2022/09/18 10:50:52;;;;;;;5.28;3.00;;;19.50;60.00;;;;;;4917024;29;20091;-59
2022/09/18 10:53:23;;;;;;;4.30;2.72;;;19.40;59.90;;;;;;4901165;29;20071;-60
2022/09/18 10:55:49;;;;;;;4.22;2.35;;;19.40;59.90;;;;;;4916818;29;20033;-61
2022/09/18 10:58:27;;;;;;;5.05;2.70;;;19.50;60.10;;;;;;4916860;29;20036;-60
2022/09/18 11:01:01;;;;;;;4.70;2.67;;;19.40;60.00;;;;;;4916724;29;20036;-59
2022/09/18 11:03:41;;;;;;;4.68;2.90;;;19.40;60.10;;;;;;4916553;29;20032;-60
2022/09/18 11:06:22;;;;;;;5.75;2.60;;;19.40;60.10;;;;;;4915882;29;20040;-57
2022/09/18 11:08:52;;;;;;;4.95;2.78;;;19.50;60.10;;;;;;4916686;29;20036;-59
2022/09/18 11:11:31;;;;;;;5.20;2.90;;;19.50;60.50;;;;;;4916718;29;20039;-60
2022/09/18 11:14:16;;;;;;;4.53;2.72;;;19.50;59.80;;;;;;4915918;29;20037;-59
2022/09/18 11:16:59;;;;;;;5.40;3.03;;;19.50;59.70;;;;;;4917920;29;20052;-58
2022/09/18 11:19:39;;;;;;;5.82;3.20;;;19.50;59.70;;;;;;4916478;29;20035;-58
2022/09/18 11:22:40;;;;;;;5.78;3.08;;;19.50;60.00;;;;;;4916402;29;20028;-59
2022/09/18 11:25:18;;;;;;;4.28;2.42;;;19.50;59.90;;;;;;4916302;29;20031;-59
2022/09/18 11:27:52;;;;;;;4.43;2.83;;;19.40;60.00;;;;;;4916548;29;20032;-57
2022/09/18 11:30:30;;;;;;;5.45;2.80;;;19.40;59.90;;;;;;4900997;29;20048;-57
2022/09/18 11:33:25;;;;;;;5.97;2.83;;;19.40;60.00;;;;;;4915967;29;20028;-58
2022/09/18 11:36:07;;;;;;;5.18;2.65;;;19.40;60.10;;;;;;4916250;29;20036;-59
2022/09/18 11:38:41;;;;;;;5.40;2.67;;;19.40;60.10;;;;;;4916234;29;20503;-60
2022/09/18 11:41:09;;;;;;;5.47;2.63;;;19.40;60.10;;;;;;4916045;29;20036;-58
2022/09/18 11:43:43;;;;;;;4.47;2.63;;;19.40;60.00;;;;;;4916011;29;20035;-59
2022/09/18 11:46:34;;;;;;;5.22;2.92;;;19.40;59.80;;;;;;4917193;29;20032;-59
2022/09/18 11:49:08;;;;;;;4.97;2.65;;;19.40;59.70;;;;;;4916026;29;20032;-57
2022/09/18 11:51:37;;;;;;;5.25;2.67;;;19.40;59.80;;;;;;4915879;29;20075;-58
2022/09/18 11:54:10;;;;;;;4.28;2.53;;;19.50;60.10;;;;;;4915939;29;20104;-59
2022/09/18 11:56:52;;;;;;;5.15;2.78;;;19.40;59.90;;;;;;4915947;29;20036;-57
2022/09/18 11:59:41;;;;;;;5.32;2.80;;;19.40;60.00;;;;;;4915699;29;20032;-60
2022/09/18 12:02:25;;;;;;;5.90;2.88;;;19.40;59.90;;;;;;4915750;29;20107;-60
2022/09/18 12:04:57;;;;;;;4.63;2.60;;;19.40;60.50;;;;;;4915391;29;20024;-58
2022/09/18 12:07:38;;;;;;;4.72;2.75;;;19.50;59.90;;;;;;4915585;29;20035;-59
2022/09/18 12:10:25;;;;;;;5.20;2.70;;;19.50;59.80;;;;;;4915715;29;20046;-58
2022/09/18 12:13:22;;;;;;;5.13;2.85;;;19.50;59.90;;;;;;4915413;29;20032;-58
2022/09/18 12:15:57;;;;;;;6.93;2.65;;;19.40;60.10;;;;;;4915314;29;20032;-60
2022/09/18 12:18:29;;;;;;;4.32;2.72;;;19.40;60.00;;;;;;4915425;29;20036;-58
2022/09/18 12:21:14;;;;;;;5.30;2.80;;;19.40;59.90;;;;;;4915167;29;20052;-59
2022/09/18 12:23:42;;;;;;;4.28;2.60;;;19.40;60.50;;;;;;4915400;29;20494;-60
2022/09/18 12:26:30;;;;;;;4.85;2.78;;;19.40;59.90;;;;;;4915279;29;20032;-58
2022/09/18 12:29:10;;;;;;;5.45;2.80;;;19.40;59.90;;;;;;4884183;29;20110;-58
2022/09/18 12:31:50;;;;;;;4.40;2.70;;;19.40;59.90;;;;;;4916650;29;20071;-60
2022/09/18 12:34:46;;;;;;;4.15;2.67;;;19.40;60.00;;;;;;4915225;29;20111;-59
2022/09/18 12:37:28;;;;;;;5.85;2.83;;;19.40;60.00;;;;;;4916135;29;20544;-59
2022/09/18 12:40:09;;;;;;;4.30;2.55;;;19.40;59.80;;;;;;4915463;29;20035;-58
2022/09/18 12:43:12;;;;;;;4.38;2.53;;;19.40;59.90;;;;;;4916419;29;20032;-59
2022/09/18 12:45:41;;;;;;;4.18;2.70;;;19.40;60.00;;;;;;4915917;29;20040;-58
2022/09/18 12:48:38;;;;;;;6.43;2.90;;;19.40;59.90;;;;;;4916303;29;20388;-58
2022/09/18 12:51:31;;;;;;;5.78;2.83;;;19.40;60.10;;;;;;4914739;29;20782;-59
2022/09/18 12:54:26;;;;;;;5.63;2.80;;;19.40;60.00;;;;;;4915792;29;20032;-60
2022/09/18 12:57:07;;;;;;;5.90;2.60;;;19.40;60.00;;;;;;4915832;29;20454;-56
2022/09/18 13:00:07;;;;;;;5.32;2.50;;;19.40;60.10;;;;;;4915946;29;20040;-60
2022/09/18 13:02:54;;;;;;;4.80;2.45;;;19.40;60.10;;;;;;4915820;29;20032;-59
2022/09/18 13:05:36;;;;;;;5.15;2.90;;;19.40;60.00;;;;;;4915664;29;20043;-59
2022/09/18 13:08:05;;;;;;;3.50;2.33;;;19.40;59.90;;;;;;4914702;29;20040;-57
2022/09/18 13:10:54;;;;;;;6.10;3.00;;;19.40;60.00;;;;;;4915605;29;20035;-58
2022/09/18 13:13:30;;;;;;;4.18;2.45;;;19.40;60.00;;;;;;4914656;29;20507;-58
2022/09/18 13:16:27;;;;;;;4.50;2.40;;;19.40;60.00;;;;;;4915548;29;20159;-58
2022/09/18 13:19:00;;;;;;;5.00;2.80;;;19.40;60.10;;;;;;4922490;29;20036;-59
2022/09/18 13:21:29;;;;;;;4.57;2.70;;;19.40;60.00;;;;;;4915546;29;20569;-56
2022/09/18 13:23:57;;;;;;;5.32;2.47;;;19.40;60.10;;;;;;4915480;29;20056;-56
2022/09/18 13:26:27;;;;;;;5.45;2.70;;;19.40;60.10;;;;;;4914614;29;20391;-60
2022/09/18 13:28:54;;;;;;;5.85;2.85;;;19.40;60.10;;;;;;4914888;29;20039;-60
2022/09/18 13:31:31;;;;;;;4.18;2.50;;;19.40;60.10;;;;;;4915292;29;20039;-58